sensor_id;sensor_type;location;lat;lon;timestamp;P1;durP1;ratioP1;P2;durP2;ratioP2
26191;SDS011;13935;55.672;37.764;2023-09-12T00:00:37;50.03;;;28.42;;
26191;SDS011;13935;55.672;37.764;2023-09-12T00:01:39;49.90;;;29.25;;
26191;SDS011;13935;55.672;37.764;2023-09-12T00:02:42;48.35;;;27.88;;
26191;SDS011;13935;55.672;37.764;2023-09-12T00:03:44;55.42;;;29.95;;
26191;SDS011;13935;55.672;37.764;2023-09-12T00:04:47;48.30;;;28.52;;
26191;SDS011;13935;55.672;37.764;2023-09-12T00:05:55;47.05;;;28.42;;
26191;SDS011;13935;55.672;37.764;2023-09-12T00:06:58;54.35;;;29.67;;
26191;SDS011;13935;55.672;37.764;2023-09-12T00:08:01;48.80;;;28.02;;
26191;SDS011;13935;55.672;37.764;2023-09-12T00:09:03;51.58;;;29.23;;
26191;SDS011;13935;55.672;37.764;2023-09-12T00:10:11;48.65;;;28.23;;
26191;SDS011;13935;55.672;37.764;2023-09-12T00:11:16;53.42;;;28.88;;
26191;SDS011;13935;55.672;37.764;2023-09-12T00:12:21;46.50;;;27.33;;
26191;SDS011;13935;55.672;37.764;2023-09-12T00:13:26;52.15;;;29.48;;
26191;SDS011;13935;55.672;37.764;2023-09-12T00:14:30;50.35;;;28.83;;
26191;SDS011;13935;55.672;37.764;2023-09-12T00:15:35;50.10;;;28.90;;
26191;SDS011;13935;55.672;37.764;2023-09-12T00:16:38;51.30;;;29.88;;
26191;SDS011;13935;55.672;37.764;2023-09-12T00:17:40;49.67;;;29.00;;
26191;SDS011;13935;55.672;37.764;2023-09-12T00:18:45;51.40;;;28.25;;
26191;SDS011;13935;55.672;37.764;2023-09-12T00:19:48;48.58;;;28.45;;
26191;SDS011;13935;55.672;37.764;2023-09-12T00:20:52;57.47;;;32.45;;
26191;SDS011;13935;55.672;37.764;2023-09-12T00:21:54;60.67;;;35.78;;
26191;SDS011;13935;55.672;37.764;2023-09-12T00:22:59;68.45;;;42.50;;
26191;SDS011;13935;55.672;37.764;2023-09-12T00:24:01;79.93;;;44.42;;
26191;SDS011;13935;55.672;37.764;2023-09-12T00:25:05;75.10;;;41.67;;
26191;SDS011;13935;55.672;37.764;2023-09-12T00:26:07;75.45;;;42.28;;
26191;SDS011;13935;55.672;37.764;2023-09-12T00:27:09;73.32;;;40.83;;
26191;SDS011;13935;55.672;37.764;2023-09-12T00:28:12;61.53;;;35.53;;
26191;SDS011;13935;55.672;37.764;2023-09-12T00:29:14;55.85;;;33.63;;
26191;SDS011;13935;55.672;37.764;2023-09-12T00:30:16;60.72;;;34.45;;
26191;SDS011;13935;55.672;37.764;2023-09-12T00:31:19;64.43;;;34.67;;
26191;SDS011;13935;55.672;37.764;2023-09-12T00:32:21;61.38;;;33.85;;
26191;SDS011;13935;55.672;37.764;2023-09-12T00:33:23;54.53;;;31.67;;
26191;SDS011;13935;55.672;37.764;2023-09-12T00:34:26;54.35;;;31.52;;
26191;SDS011;13935;55.672;37.764;2023-09-12T00:35:28;52.88;;;30.75;;
26191;SDS011;13935;55.672;37.764;2023-09-12T00:36:30;53.90;;;30.75;;
26191;SDS011;13935;55.672;37.764;2023-09-12T00:37:34;55.05;;;31.15;;
26191;SDS011;13935;55.672;37.764;2023-09-12T00:38:36;57.92;;;30.90;;
26191;SDS011;13935;55.672;37.764;2023-09-12T00:39:38;53.03;;;30.92;;
26191;SDS011;13935;55.672;37.764;2023-09-12T00:40:40;55.80;;;31.17;;
26191;SDS011;13935;55.672;37.764;2023-09-12T00:41:43;58.17;;;29.48;;
26191;SDS011;13935;55.672;37.764;2023-09-12T00:42:45;53.85;;;30.23;;
26191;SDS011;13935;55.672;37.764;2023-09-12T00:43:48;57.10;;;31.40;;
26191;SDS011;13935;55.672;37.764;2023-09-12T00:44:50;58.42;;;31.45;;
26191;SDS011;13935;55.672;37.764;2023-09-12T00:45:52;56.60;;;31.60;;
26191;SDS011;13935;55.672;37.764;2023-09-12T00:46:56;55.85;;;30.75;;
26191;SDS011;13935;55.672;37.764;2023-09-12T00:47:59;56.92;;;31.40;;
26191;SDS011;13935;55.672;37.764;2023-09-12T00:49:05;53.60;;;31.85;;
26191;SDS011;13935;55.672;37.764;2023-09-12T00:50:09;55.63;;;32.72;;
26191;SDS011;13935;55.672;37.764;2023-09-12T00:51:14;57.17;;;32.33;;
26191;SDS011;13935;55.672;37.764;2023-09-12T00:52:21;59.50;;;32.15;;
26191;SDS011;13935;55.672;37.764;2023-09-12T00:53:26;56.90;;;32.03;;
26191;SDS011;13935;55.672;37.764;2023-09-12T00:54:28;59.83;;;32.97;;
26191;SDS011;13935;55.672;37.764;2023-09-12T00:55:31;55.13;;;32.05;;
26191;SDS011;13935;55.672;37.764;2023-09-12T00:56:35;59.90;;;32.10;;
26191;SDS011;13935;55.672;37.764;2023-09-12T00:57:38;61.50;;;33.15;;
26191;SDS011;13935;55.672;37.764;2023-09-12T00:58:40;59.13;;;33.50;;
26191;SDS011;13935;55.672;37.764;2023-09-12T00:59:44;61.20;;;32.78;;
26191;SDS011;13935;55.672;37.764;2023-09-12T01:00:46;55.63;;;32.47;;
26191;SDS011;13935;55.672;37.764;2023-09-12T01:01:50;59.42;;;32.63;;
26191;SDS011;13935;55.672;37.764;2023-09-12T01:02:53;62.90;;;31.80;;
26191;SDS011;13935;55.672;37.764;2023-09-12T01:03:56;55.10;;;32.33;;
26191;SDS011;13935;55.672;37.764;2023-09-12T01:04:58;58.90;;;33.30;;
26191;SDS011;13935;55.672;37.764;2023-09-12T01:06:02;61.72;;;32.75;;
26191;SDS011;13935;55.672;37.764;2023-09-12T01:07:08;61.22;;;32.47;;
26191;SDS011;13935;55.672;37.764;2023-09-12T01:08:11;57.38;;;31.88;;
26191;SDS011;13935;55.672;37.764;2023-09-12T01:09:14;61.55;;;32.42;;
26191;SDS011;13935;55.672;37.764;2023-09-12T01:10:17;63.80;;;32.63;;
26191;SDS011;13935;55.672;37.764;2023-09-12T01:11:20;58.58;;;32.75;;
26191;SDS011;13935;55.672;37.764;2023-09-12T01:12:24;59.13;;;33.58;;
26191;SDS011;13935;55.672;37.764;2023-09-12T01:13:26;60.25;;;31.80;;
26191;SDS011;13935;55.672;37.764;2023-09-12T01:14:30;62.20;;;33.13;;
26191;SDS011;13935;55.672;37.764;2023-09-12T01:15:32;63.80;;;31.88;;
26191;SDS011;13935;55.672;37.764;2023-09-12T01:16:34;55.08;;;31.83;;
26191;SDS011;13935;55.672;37.764;2023-09-12T01:17:36;58.05;;;31.27;;
26191;SDS011;13935;55.672;37.764;2023-09-12T01:18:39;61.50;;;32.63;;
26191;SDS011;13935;55.672;37.764;2023-09-12T01:19:44;59.10;;;32.05;;
26191;SDS011;13935;55.672;37.764;2023-09-12T01:27:48;58.67;;;30.80;;
26191;SDS011;13935;55.672;37.764;2023-09-12T01:28:53;58.83;;;32.42;;
26191;SDS011;13935;55.672;37.764;2023-09-12T01:29:57;62.58;;;34.28;;
26191;SDS011;13935;55.672;37.764;2023-09-12T01:31:03;64.25;;;33.38;;
26191;SDS011;13935;55.672;37.764;2023-09-12T01:32:07;56.58;;;32.78;;
26191;SDS011;13935;55.672;37.764;2023-09-12T01:33:11;58.10;;;32.70;;
26191;SDS011;13935;55.672;37.764;2023-09-12T01:34:15;66.85;;;35.45;;
26191;SDS011;13935;55.672;37.764;2023-09-12T01:35:19;59.90;;;32.65;;
26191;SDS011;13935;55.672;37.764;2023-09-12T01:36:23;55.45;;;32.13;;
26191;SDS011;13935;55.672;37.764;2023-09-12T01:37:32;64.80;;;32.45;;
26191;SDS011;13935;55.672;37.764;2023-09-12T01:38:34;61.90;;;32.25;;
26191;SDS011;13935;55.672;37.764;2023-09-12T01:39:36;55.45;;;31.42;;
26191;SDS011;13935;55.672;37.764;2023-09-12T01:40:57;60.58;;;33.05;;
26191;SDS011;13935;55.672;37.764;2023-09-12T01:42:01;60.97;;;32.17;;
26191;SDS011;13935;55.672;37.764;2023-09-12T01:43:05;59.72;;;32.58;;
26191;SDS011;13935;55.672;37.764;2023-09-12T01:44:08;62.67;;;33.47;;
26191;SDS011;13935;55.672;37.764;2023-09-12T01:45:13;62.08;;;33.55;;
26191;SDS011;13935;55.672;37.764;2023-09-12T01:46:22;60.80;;;33.67;;
26191;SDS011;13935;55.672;37.764;2023-09-12T01:47:26;62.08;;;33.13;;
26191;SDS011;13935;55.672;37.764;2023-09-12T01:48:32;56.20;;;32.55;;
26191;SDS011;13935;55.672;37.764;2023-09-12T01:49:37;59.17;;;32.72;;
26191;SDS011;13935;55.672;37.764;2023-09-12T01:50:48;60.90;;;32.22;;
26191;SDS011;13935;55.672;37.764;2023-09-12T01:51:51;59.60;;;34.65;;
26191;SDS011;13935;55.672;37.764;2023-09-12T01:52:53;62.08;;;33.08;;
26191;SDS011;13935;55.672;37.764;2023-09-12T01:53:56;61.72;;;34.53;;
26191;SDS011;13935;55.672;37.764;2023-09-12T01:55:01;58.42;;;34.33;;
26191;SDS011;13935;55.672;37.764;2023-09-12T01:56:06;60.22;;;32.60;;
26191;SDS011;13935;55.672;37.764;2023-09-12T01:57:09;60.45;;;33.35;;
26191;SDS011;13935;55.672;37.764;2023-09-12T01:58:12;61.40;;;33.97;;
26191;SDS011;13935;55.672;37.764;2023-09-12T01:59:15;62.53;;;34.20;;
26191;SDS011;13935;55.672;37.764;2023-09-12T02:00:18;65.70;;;33.70;;
26191;SDS011;13935;55.672;37.764;2023-09-12T02:01:22;63.22;;;32.65;;
26191;SDS011;13935;55.672;37.764;2023-09-12T02:02:28;59.08;;;31.95;;
26191;SDS011;13935;55.672;37.764;2023-09-12T02:03:30;60.72;;;33.90;;
26191;SDS011;13935;55.672;37.764;2023-09-12T02:04:33;62.70;;;33.03;;
26191;SDS011;13935;55.672;37.764;2023-09-12T02:05:35;60.83;;;32.75;;
26191;SDS011;13935;55.672;37.764;2023-09-12T02:06:40;60.72;;;33.58;;
26191;SDS011;13935;55.672;37.764;2023-09-12T02:07:42;62.75;;;34.20;;
26191;SDS011;13935;55.672;37.764;2023-09-12T02:08:44;61.72;;;32.70;;
26191;SDS011;13935;55.672;37.764;2023-09-12T02:09:47;61.75;;;33.38;;
26191;SDS011;13935;55.672;37.764;2023-09-12T02:10:49;60.05;;;32.88;;
26191;SDS011;13935;55.672;37.764;2023-09-12T02:11:52;64.75;;;33.25;;
26191;SDS011;13935;55.672;37.764;2023-09-12T02:12:54;62.28;;;33.78;;
26191;SDS011;13935;55.672;37.764;2023-09-12T02:13:56;58.38;;;32.63;;
26191;SDS011;13935;55.672;37.764;2023-09-12T02:14:58;59.95;;;32.97;;
26191;SDS011;13935;55.672;37.764;2023-09-12T02:16:01;67.22;;;34.10;;
26191;SDS011;13935;55.672;37.764;2023-09-12T02:17:06;58.28;;;31.88;;
26191;SDS011;13935;55.672;37.764;2023-09-12T02:18:08;60.22;;;33.40;;
26191;SDS011;13935;55.672;37.764;2023-09-12T02:19:10;62.63;;;33.70;;
26191;SDS011;13935;55.672;37.764;2023-09-12T02:20:13;62.03;;;34.45;;
26191;SDS011;13935;55.672;37.764;2023-09-12T02:21:17;60.75;;;33.20;;
26191;SDS011;13935;55.672;37.764;2023-09-12T02:22:20;67.80;;;34.53;;
26191;SDS011;13935;55.672;37.764;2023-09-12T02:23:23;69.70;;;35.17;;
26191;SDS011;13935;55.672;37.764;2023-09-12T02:24:26;60.97;;;34.90;;
26191;SDS011;13935;55.672;37.764;2023-09-12T02:25:29;66.60;;;34.55;;
26191;SDS011;13935;55.672;37.764;2023-09-12T02:26:31;60.47;;;32.90;;
26191;SDS011;13935;55.672;37.764;2023-09-12T02:27:39;57.50;;;32.67;;
26191;SDS011;13935;55.672;37.764;2023-09-12T02:28:42;58.28;;;31.58;;
26191;SDS011;13935;55.672;37.764;2023-09-12T02:29:45;60.15;;;31.23;;
26191;SDS011;13935;55.672;37.764;2023-09-12T02:30:48;55.90;;;30.80;;
26191;SDS011;13935;55.672;37.764;2023-09-12T02:31:52;53.90;;;30.60;;
26191;SDS011;13935;55.672;37.764;2023-09-12T02:32:54;58.05;;;31.67;;
26191;SDS011;13935;55.672;37.764;2023-09-12T02:33:57;57.25;;;30.80;;
26191;SDS011;13935;55.672;37.764;2023-09-12T02:34:59;59.45;;;32.92;;
26191;SDS011;13935;55.672;37.764;2023-09-12T02:36:02;60.58;;;32.20;;
26191;SDS011;13935;55.672;37.764;2023-09-12T02:37:04;57.40;;;32.63;;
26191;SDS011;13935;55.672;37.764;2023-09-12T02:38:06;57.20;;;31.75;;
26191;SDS011;13935;55.672;37.764;2023-09-12T02:39:09;57.55;;;32.50;;
26191;SDS011;13935;55.672;37.764;2023-09-12T02:40:11;58.15;;;32.08;;
26191;SDS011;13935;55.672;37.764;2023-09-12T02:41:15;56.95;;;30.30;;
26191;SDS011;13935;55.672;37.764;2023-09-12T02:42:17;54.33;;;30.25;;
26191;SDS011;13935;55.672;37.764;2023-09-12T02:43:19;57.13;;;29.83;;
26191;SDS011;13935;55.672;37.764;2023-09-12T02:44:21;61.50;;;32.67;;
26191;SDS011;13935;55.672;37.764;2023-09-12T02:45:23;62.20;;;32.80;;
26191;SDS011;13935;55.672;37.764;2023-09-12T02:46:26;61.03;;;32.88;;
26191;SDS011;13935;55.672;37.764;2023-09-12T02:47:28;64.45;;;32.05;;
26191;SDS011;13935;55.672;37.764;2023-09-12T02:48:30;60.50;;;33.58;;
26191;SDS011;13935;55.672;37.764;2023-09-12T02:49:33;61.75;;;33.65;;
26191;SDS011;13935;55.672;37.764;2023-09-12T02:50:35;59.75;;;32.80;;
26191;SDS011;13935;55.672;37.764;2023-09-12T02:51:40;66.47;;;32.95;;
26191;SDS011;13935;55.672;37.764;2023-09-12T02:52:47;60.88;;;33.10;;
26191;SDS011;13935;55.672;37.764;2023-09-12T02:53:54;61.25;;;33.35;;
26191;SDS011;13935;55.672;37.764;2023-09-12T02:54:57;58.40;;;33.90;;
26191;SDS011;13935;55.672;37.764;2023-09-12T02:55:59;64.97;;;32.47;;
26191;SDS011;13935;55.672;37.764;2023-09-12T02:57:01;61.13;;;32.97;;
26191;SDS011;13935;55.672;37.764;2023-09-12T02:58:03;59.60;;;33.00;;
26191;SDS011;13935;55.672;37.764;2023-09-12T02:59:05;59.45;;;31.92;;
26191;SDS011;13935;55.672;37.764;2023-09-12T03:00:11;58.63;;;31.60;;
26191;SDS011;13935;55.672;37.764;2023-09-12T03:01:16;60.72;;;32.90;;
26191;SDS011;13935;55.672;37.764;2023-09-12T03:02:20;61.40;;;32.75;;
26191;SDS011;13935;55.672;37.764;2023-09-12T03:03:23;62.53;;;31.98;;
26191;SDS011;13935;55.672;37.764;2023-09-12T03:04:26;57.92;;;32.05;;
26191;SDS011;13935;55.672;37.764;2023-09-12T03:05:30;57.88;;;31.02;;
26191;SDS011;13935;55.672;37.764;2023-09-12T03:06:34;62.33;;;33.90;;
26191;SDS011;13935;55.672;37.764;2023-09-12T03:07:37;64.35;;;34.35;;
26191;SDS011;13935;55.672;37.764;2023-09-12T03:08:40;56.72;;;32.85;;
26191;SDS011;13935;55.672;37.764;2023-09-12T03:09:44;55.38;;;31.80;;
26191;SDS011;13935;55.672;37.764;2023-09-12T03:10:54;60.95;;;33.17;;
26191;SDS011;13935;55.672;37.764;2023-09-12T03:12:00;57.17;;;32.05;;
26191;SDS011;13935;55.672;37.764;2023-09-12T03:13:05;57.08;;;31.15;;
26191;SDS011;13935;55.672;37.764;2023-09-12T03:14:07;60.20;;;32.08;;
26191;SDS011;13935;55.672;37.764;2023-09-12T03:15:13;52.55;;;30.08;;
26191;SDS011;13935;55.672;37.764;2023-09-12T03:16:17;57.13;;;31.10;;
26191;SDS011;13935;55.672;37.764;2023-09-12T03:17:20;64.40;;;32.75;;
26191;SDS011;13935;55.672;37.764;2023-09-12T03:18:25;59.65;;;32.63;;
26191;SDS011;13935;55.672;37.764;2023-09-12T03:19:29;53.97;;;31.40;;
26191;SDS011;13935;55.672;37.764;2023-09-12T03:20:32;60.90;;;31.90;;
26191;SDS011;13935;55.672;37.764;2023-09-12T03:21:34;58.22;;;33.22;;
26191;SDS011;13935;55.672;37.764;2023-09-12T03:22:38;63.17;;;33.85;;
26191;SDS011;13935;55.672;37.764;2023-09-12T03:23:42;65.25;;;33.72;;
26191;SDS011;13935;55.672;37.764;2023-09-12T03:24:44;63.15;;;33.95;;
26191;SDS011;13935;55.672;37.764;2023-09-12T03:25:47;63.78;;;33.75;;
26191;SDS011;13935;55.672;37.764;2023-09-12T03:26:50;58.00;;;33.55;;
26191;SDS011;13935;55.672;37.764;2023-09-12T03:27:53;61.33;;;33.58;;
26191;SDS011;13935;55.672;37.764;2023-09-12T03:28:57;67.68;;;34.53;;
26191;SDS011;13935;55.672;37.764;2023-09-12T03:30:00;64.75;;;33.58;;
26191;SDS011;13935;55.672;37.764;2023-09-12T03:31:06;61.03;;;33.30;;
26191;SDS011;13935;55.672;37.764;2023-09-12T03:32:13;60.90;;;32.97;;
26191;SDS011;13935;55.672;37.764;2023-09-12T03:33:16;59.78;;;33.75;;
26191;SDS011;13935;55.672;37.764;2023-09-12T03:34:19;59.97;;;32.35;;
26191;SDS011;13935;55.672;37.764;2023-09-12T03:35:22;60.67;;;32.30;;
26191;SDS011;13935;55.672;37.764;2023-09-12T03:36:24;62.90;;;33.25;;
26191;SDS011;13935;55.672;37.764;2023-09-12T03:37:28;65.65;;;35.33;;
26191;SDS011;13935;55.672;37.764;2023-09-12T03:38:30;59.03;;;33.08;;
26191;SDS011;13935;55.672;37.764;2023-09-12T03:39:35;63.38;;;33.60;;
26191;SDS011;13935;55.672;37.764;2023-09-12T03:40:37;62.03;;;33.38;;
26191;SDS011;13935;55.672;37.764;2023-09-12T03:41:39;57.10;;;32.10;;
26191;SDS011;13935;55.672;37.764;2023-09-12T03:42:41;62.03;;;32.55;;
26191;SDS011;13935;55.672;37.764;2023-09-12T03:43:45;57.33;;;32.00;;
26191;SDS011;13935;55.672;37.764;2023-09-12T03:44:49;60.80;;;31.92;;
26191;SDS011;13935;55.672;37.764;2023-09-12T03:45:52;52.30;;;30.50;;
26191;SDS011;13935;55.672;37.764;2023-09-12T03:46:58;58.20;;;31.08;;
26191;SDS011;13935;55.672;37.764;2023-09-12T03:48:02;51.50;;;29.55;;
26191;SDS011;13935;55.672;37.764;2023-09-12T03:49:06;51.58;;;30.98;;
26191;SDS011;13935;55.672;37.764;2023-09-12T03:50:08;56.78;;;30.45;;
26191;SDS011;13935;55.672;37.764;2023-09-12T03:51:12;53.75;;;30.98;;
26191;SDS011;13935;55.672;37.764;2023-09-12T03:52:15;55.75;;;30.40;;
26191;SDS011;13935;55.672;37.764;2023-09-12T03:53:17;52.30;;;29.92;;
26191;SDS011;13935;55.672;37.764;2023-09-12T03:54:20;49.50;;;29.77;;
26191;SDS011;13935;55.672;37.764;2023-09-12T03:55:22;53.50;;;30.05;;
26191;SDS011;13935;55.672;37.764;2023-09-12T03:56:24;51.40;;;30.50;;
26191;SDS011;13935;55.672;37.764;2023-09-12T03:57:27;55.65;;;30.48;;
26191;SDS011;13935;55.672;37.764;2023-09-12T03:58:30;56.08;;;30.70;;
26191;SDS011;13935;55.672;37.764;2023-09-12T03:59:32;57.40;;;29.75;;
26191;SDS011;13935;55.672;37.764;2023-09-12T04:00:34;52.58;;;30.70;;
26191;SDS011;13935;55.672;37.764;2023-09-12T04:01:37;50.58;;;29.08;;
26191;SDS011;13935;55.672;37.764;2023-09-12T04:02:39;55.60;;;30.92;;
26191;SDS011;13935;55.672;37.764;2023-09-12T04:03:42;51.60;;;31.23;;
26191;SDS011;13935;55.672;37.764;2023-09-12T04:04:50;50.53;;;30.10;;
26191;SDS011;13935;55.672;37.764;2023-09-12T04:05:54;47.58;;;28.35;;
26191;SDS011;13935;55.672;37.764;2023-09-12T04:06:56;47.30;;;28.98;;
26191;SDS011;13935;55.672;37.764;2023-09-12T04:07:59;49.20;;;28.88;;
26191;SDS011;13935;55.672;37.764;2023-09-12T04:09:01;45.22;;;27.65;;
26191;SDS011;13935;55.672;37.764;2023-09-12T04:10:06;46.60;;;27.80;;
26191;SDS011;13935;55.672;37.764;2023-09-12T04:11:09;48.90;;;28.05;;
26191;SDS011;13935;55.672;37.764;2023-09-12T04:12:13;42.35;;;27.10;;
26191;SDS011;13935;55.672;37.764;2023-09-12T04:13:15;39.90;;;26.40;;
26191;SDS011;13935;55.672;37.764;2023-09-12T04:14:17;40.17;;;26.15;;
26191;SDS011;13935;55.672;37.764;2023-09-12T04:15:19;42.65;;;27.02;;
26191;SDS011;13935;55.672;37.764;2023-09-12T04:16:21;44.45;;;27.13;;
26191;SDS011;13935;55.672;37.764;2023-09-12T04:17:25;42.40;;;26.35;;
26191;SDS011;13935;55.672;37.764;2023-09-12T04:18:28;43.65;;;26.70;;
26191;SDS011;13935;55.672;37.764;2023-09-12T04:19:30;39.60;;;25.27;;
26191;SDS011;13935;55.672;37.764;2023-09-12T04:20:34;40.13;;;25.60;;
26191;SDS011;13935;55.672;37.764;2023-09-12T04:21:37;44.22;;;26.52;;
26191;SDS011;13935;55.672;37.764;2023-09-12T04:22:41;40.10;;;26.13;;
26191;SDS011;13935;55.672;37.764;2023-09-12T04:23:44;41.28;;;26.77;;
26191;SDS011;13935;55.672;37.764;2023-09-12T04:24:46;38.80;;;25.77;;
26191;SDS011;13935;55.672;37.764;2023-09-12T04:25:49;40.03;;;25.27;;
26191;SDS011;13935;55.672;37.764;2023-09-12T04:26:51;38.50;;;25.95;;
26191;SDS011;13935;55.672;37.764;2023-09-12T04:27:53;37.35;;;25.83;;
26191;SDS011;13935;55.672;37.764;2023-09-12T04:28:55;35.42;;;25.10;;
26191;SDS011;13935;55.672;37.764;2023-09-12T04:29:57;37.15;;;25.00;;
26191;SDS011;13935;55.672;37.764;2023-09-12T04:31:02;39.78;;;25.40;;
26191;SDS011;13935;55.672;37.764;2023-09-12T04:32:05;39.13;;;25.02;;
26191;SDS011;13935;55.672;37.764;2023-09-12T04:33:08;37.70;;;25.15;;
26191;SDS011;13935;55.672;37.764;2023-09-12T04:34:10;37.20;;;25.40;;
26191;SDS011;13935;55.672;37.764;2023-09-12T04:35:13;38.28;;;24.55;;
26191;SDS011;13935;55.672;37.764;2023-09-12T04:36:15;37.00;;;24.27;;
26191;SDS011;13935;55.672;37.764;2023-09-12T04:37:17;35.90;;;23.80;;
26191;SDS011;13935;55.672;37.764;2023-09-12T04:38:19;39.53;;;24.83;;
26191;SDS011;13935;55.672;37.764;2023-09-12T04:39:26;35.40;;;24.27;;
26191;SDS011;13935;55.672;37.764;2023-09-12T04:40:28;35.85;;;24.85;;
26191;SDS011;13935;55.672;37.764;2023-09-12T04:41:31;38.40;;;25.15;;
26191;SDS011;13935;55.672;37.764;2023-09-12T04:42:33;37.38;;;23.98;;
26191;SDS011;13935;55.672;37.764;2023-09-12T04:43:35;32.47;;;23.80;;
26191;SDS011;13935;55.672;37.764;2023-09-12T04:44:39;34.78;;;25.25;;
26191;SDS011;13935;55.672;37.764;2023-09-12T04:45:42;35.38;;;23.77;;
26191;SDS011;13935;55.672;37.764;2023-09-12T04:46:44;35.17;;;24.15;;
26191;SDS011;13935;55.672;37.764;2023-09-12T04:47:48;36.80;;;25.33;;
26191;SDS011;13935;55.672;37.764;2023-09-12T04:48:50;52.92;;;36.70;;
26191;SDS011;13935;55.672;37.764;2023-09-12T04:49:53;34.90;;;24.80;;
26191;SDS011;13935;55.672;37.764;2023-09-12T04:50:55;34.08;;;25.45;;
26191;SDS011;13935;55.672;37.764;2023-09-12T04:51:57;33.50;;;24.38;;
26191;SDS011;13935;55.672;37.764;2023-09-12T04:52:59;36.55;;;24.63;;
26191;SDS011;13935;55.672;37.764;2023-09-12T04:54:01;37.65;;;24.77;;
26191;SDS011;13935;55.672;37.764;2023-09-12T04:55:04;35.28;;;24.00;;
26191;SDS011;13935;55.672;37.764;2023-09-12T04:56:06;33.28;;;23.35;;
26191;SDS011;13935;55.672;37.764;2023-09-12T04:57:11;34.60;;;24.50;;
26191;SDS011;13935;55.672;37.764;2023-09-12T04:58:14;33.95;;;25.52;;
26191;SDS011;13935;55.672;37.764;2023-09-12T04:59:17;34.47;;;24.58;;
26191;SDS011;13935;55.672;37.764;2023-09-12T05:00:19;33.35;;;24.38;;
26191;SDS011;13935;55.672;37.764;2023-09-12T05:01:21;32.60;;;24.95;;
26191;SDS011;13935;55.672;37.764;2023-09-12T05:02:23;33.20;;;24.48;;
26191;SDS011;13935;55.672;37.764;2023-09-12T05:03:25;33.80;;;25.55;;
26191;SDS011;13935;55.672;37.764;2023-09-12T05:04:30;36.20;;;25.30;;
26191;SDS011;13935;55.672;37.764;2023-09-12T05:05:33;34.28;;;24.90;;
26191;SDS011;13935;55.672;37.764;2023-09-12T05:06:39;31.92;;;24.77;;
26191;SDS011;13935;55.672;37.764;2023-09-12T05:07:41;37.47;;;25.88;;
26191;SDS011;13935;55.672;37.764;2023-09-12T05:08:44;34.05;;;26.10;;
26191;SDS011;13935;55.672;37.764;2023-09-12T05:09:46;35.67;;;25.50;;
26191;SDS011;13935;55.672;37.764;2023-09-12T05:10:48;29.52;;;24.23;;
26191;SDS011;13935;55.672;37.764;2023-09-12T05:11:51;34.20;;;25.52;;
26191;SDS011;13935;55.672;37.764;2023-09-12T05:12:53;33.38;;;26.45;;
26191;SDS011;13935;55.672;37.764;2023-09-12T05:13:55;35.60;;;25.55;;
26191;SDS011;13935;55.672;37.764;2023-09-12T05:14:58;33.58;;;25.40;;
26191;SDS011;13935;55.672;37.764;2023-09-12T05:16:00;32.67;;;24.63;;
26191;SDS011;13935;55.672;37.764;2023-09-12T05:17:04;34.13;;;25.83;;
26191;SDS011;13935;55.672;37.764;2023-09-12T05:18:09;35.47;;;25.77;;
26191;SDS011;13935;55.672;37.764;2023-09-12T05:19:12;33.47;;;26.45;;
26191;SDS011;13935;55.672;37.764;2023-09-12T05:20:14;38.30;;;26.23;;
26191;SDS011;13935;55.672;37.764;2023-09-12T05:21:17;32.55;;;25.98;;
26191;SDS011;13935;55.672;37.764;2023-09-12T05:22:20;34.92;;;26.02;;
26191;SDS011;13935;55.672;37.764;2023-09-12T05:23:22;35.63;;;25.40;;
26191;SDS011;13935;55.672;37.764;2023-09-12T05:24:24;34.47;;;25.67;;
26191;SDS011;13935;55.672;37.764;2023-09-12T05:25:26;33.42;;;25.73;;
26191;SDS011;13935;55.672;37.764;2023-09-12T05:26:29;32.95;;;25.58;;
26191;SDS011;13935;55.672;37.764;2023-09-12T05:27:33;32.60;;;25.30;;
26191;SDS011;13935;55.672;37.764;2023-09-12T05:28:37;34.35;;;25.70;;
26191;SDS011;13935;55.672;37.764;2023-09-12T05:29:39;35.05;;;24.60;;
26191;SDS011;13935;55.672;37.764;2023-09-12T05:30:41;35.90;;;25.73;;
26191;SDS011;13935;55.672;37.764;2023-09-12T05:31:44;36.05;;;26.90;;
26191;SDS011;13935;55.672;37.764;2023-09-12T05:32:46;34.40;;;25.40;;
26191;SDS011;13935;55.672;37.764;2023-09-12T05:33:49;37.53;;;26.80;;
26191;SDS011;13935;55.672;37.764;2023-09-12T05:34:51;47.42;;;31.85;;
26191;SDS011;13935;55.672;37.764;2023-09-12T05:36:07;35.35;;;27.27;;
26191;SDS011;13935;55.672;37.764;2023-09-12T05:37:09;38.60;;;25.10;;
26191;SDS011;13935;55.672;37.764;2023-09-12T05:38:11;35.47;;;25.05;;
26191;SDS011;13935;55.672;37.764;2023-09-12T05:39:14;34.92;;;25.73;;
26191;SDS011;13935;55.672;37.764;2023-09-12T05:40:17;32.70;;;26.10;;
26191;SDS011;13935;55.672;37.764;2023-09-12T05:41:19;36.83;;;26.52;;
26191;SDS011;13935;55.672;37.764;2023-09-12T05:42:21;37.08;;;25.38;;
26191;SDS011;13935;55.672;37.764;2023-09-12T05:43:24;39.72;;;26.52;;
26191;SDS011;13935;55.672;37.764;2023-09-12T05:44:26;37.88;;;26.23;;
26191;SDS011;13935;55.672;37.764;2023-09-12T05:45:29;33.28;;;25.42;;
26191;SDS011;13935;55.672;37.764;2023-09-12T05:46:32;33.97;;;26.33;;
26191;SDS011;13935;55.672;37.764;2023-09-12T05:47:34;32.63;;;25.73;;
26191;SDS011;13935;55.672;37.764;2023-09-12T05:48:36;30.52;;;25.80;;
26191;SDS011;13935;55.672;37.764;2023-09-12T05:49:38;31.08;;;25.63;;
26191;SDS011;13935;55.672;37.764;2023-09-12T05:50:40;32.20;;;26.23;;
26191;SDS011;13935;55.672;37.764;2023-09-12T05:51:42;33.40;;;25.30;;
26191;SDS011;13935;55.672;37.764;2023-09-12T05:52:44;32.10;;;24.05;;
26191;SDS011;13935;55.672;37.764;2023-09-12T05:53:47;30.88;;;24.20;;
26191;SDS011;13935;55.672;37.764;2023-09-12T05:54:49;32.28;;;24.25;;
26191;SDS011;13935;55.672;37.764;2023-09-12T05:55:52;29.85;;;23.38;;
26191;SDS011;13935;55.672;37.764;2023-09-12T05:56:54;31.60;;;24.15;;
26191;SDS011;13935;55.672;37.764;2023-09-12T05:57:59;31.45;;;24.52;;
26191;SDS011;13935;55.672;37.764;2023-09-12T05:59:01;31.75;;;24.83;;
26191;SDS011;13935;55.672;37.764;2023-09-12T06:00:04;34.03;;;25.42;;
26191;SDS011;13935;55.672;37.764;2023-09-12T06:01:12;32.35;;;26.08;;
26191;SDS011;13935;55.672;37.764;2023-09-12T06:02:16;34.15;;;26.92;;
26191;SDS011;13935;55.672;37.764;2023-09-12T06:03:19;33.70;;;27.25;;
26191;SDS011;13935;55.672;37.764;2023-09-12T06:04:21;33.60;;;26.08;;
26191;SDS011;13935;55.672;37.764;2023-09-12T06:05:24;35.03;;;28.25;;
26191;SDS011;13935;55.672;37.764;2023-09-12T06:06:26;33.22;;;27.42;;
26191;SDS011;13935;55.672;37.764;2023-09-12T06:07:28;31.17;;;25.67;;
26191;SDS011;13935;55.672;37.764;2023-09-12T06:08:30;30.40;;;24.88;;
26191;SDS011;13935;55.672;37.764;2023-09-12T06:09:32;33.67;;;25.25;;
26191;SDS011;13935;55.672;37.764;2023-09-12T06:10:34;33.30;;;26.67;;
26191;SDS011;13935;55.672;37.764;2023-09-12T06:11:36;34.28;;;25.70;;